createdAt,value
2022-11-05T00:01:09.988Z,84.39
2022-11-05T00:02:30.104Z,84.47
2022-11-05T00:03:50.378Z,84.71
2022-11-05T00:05:11.889Z,84.73
2022-11-05T00:06:32.206Z,84.61
2022-11-05T00:07:57.125Z,84.57
2022-11-05T00:09:17.364Z,84.58
2022-11-05T00:10:23.160Z,84.57
2022-11-05T00:11:44.791Z,84.68
2022-11-05T00:13:05.127Z,84.75
2022-11-05T00:14:25.283Z,84.73
2022-11-05T00:15:45.201Z,84.54
2022-11-05T00:16:47.699Z,84.53
2022-11-05T00:17:49.223Z,84.76
2022-11-05T00:19:05.786Z,84.74
2022-11-05T00:20:13.375Z,84.79
2022-11-05T00:21:29.786Z,84.76
2022-11-05T00:22:51.900Z,84.74
2022-11-05T00:24:12.232Z,84.82
2022-11-05T00:25:17.778Z,84.78
2022-11-05T00:26:19.263Z,84.83
2022-11-05T00:27:21.725Z,84.90
2022-11-05T00:28:24.324Z,84.94
2022-11-05T00:29:25.820Z,85.03
2022-11-05T00:30:29.018Z,84.95
2022-11-05T00:31:32.218Z,84.95
2022-11-05T00:32:34.826Z,84.94
2022-11-05T00:33:37.846Z,85.33
2022-11-05T00:34:39.359Z,85.04
2022-11-05T00:35:43.995Z,85.19
2022-11-05T00:36:46.025Z,84.85
2022-11-05T00:37:50.336Z,85.01
2022-11-05T00:38:52.175Z,85.20
2022-11-05T00:39:54.710Z,85.04
2022-11-05T00:40:57.251Z,84.97
2022-11-05T00:42:17.513Z,85.00
2022-11-05T00:43:37.755Z,85.12
2022-11-05T00:44:57.944Z,85.02
2022-11-05T00:46:00.443Z,84.96
2022-11-05T00:47:16.872Z,84.98
2022-11-05T00:48:36.919Z,84.88
2022-11-05T00:49:38.605Z,85.09
2022-11-05T00:50:41.258Z,84.95
2022-11-05T00:51:44.112Z,85.18
2022-11-05T00:52:57.018Z,85.11
2022-11-05T00:53:59.730Z,85.08
2022-11-05T00:55:01.252Z,85.13
2022-11-05T00:56:04.126Z,85.32
2022-11-05T00:57:06.008Z,85.10
2022-11-05T00:58:10.441Z,85.14
2022-11-05T00:59:11.926Z,85.25
2022-11-05T01:00:15.628Z,85.39
2022-11-05T01:01:18.229Z,85.19
2022-11-05T01:02:19.943Z,85.38
2022-11-05T01:03:24.807Z,85.43
2022-11-05T01:04:26.466Z,85.33
2022-11-05T01:05:30.749Z,85.22
2022-11-05T01:06:32.241Z,85.45
2022-11-05T01:07:36.086Z,85.44
2022-11-05T01:08:38.810Z,85.46
2022-11-05T01:09:40.295Z,85.46
2022-11-05T01:10:43.360Z,85.37
2022-11-05T01:11:45.986Z,85.43
2022-11-05T01:12:48.586Z,85.34
2022-11-05T01:13:51.107Z,85.35
2022-11-05T01:14:52.690Z,85.28
2022-11-05T01:15:57.468Z,85.44
2022-11-05T01:16:59.068Z,85.56
2022-11-05T01:18:01.537Z,85.30
2022-11-05T01:19:04.496Z,85.40
2022-11-05T01:20:07.396Z,85.36
2022-11-05T01:21:15.671Z,85.41
2022-11-05T01:22:17.201Z,85.41
2022-11-05T01:23:21.471Z,85.34
2022-11-05T01:24:23.404Z,85.51
2022-11-05T01:25:26.283Z,85.35
2022-11-05T01:26:27.887Z,85.41
2022-11-05T01:27:30.778Z,85.24
2022-11-05T01:28:33.283Z,85.30
2022-11-05T01:29:35.112Z,85.42
2022-11-05T01:30:38.320Z,85.30
2022-11-05T01:31:39.839Z,85.76
2022-11-05T01:32:42.322Z,85.29
2022-11-05T01:33:44.774Z,85.36
2022-11-05T01:34:47.328Z,85.20
2022-11-05T01:35:51.639Z,85.39
2022-11-05T01:36:54.119Z,85.42
2022-11-05T01:37:55.770Z,85.40
2022-11-05T01:38:59.550Z,85.43
2022-11-05T01:40:01.161Z,85.63
2022-11-05T01:41:04.176Z,85.44
2022-11-05T01:42:14.267Z,85.74
2022-11-05T01:43:18.797Z,85.67
2022-11-05T01:44:52.196Z,85.76
2022-11-05T01:45:59.211Z,85.82
2022-11-05T01:47:01.216Z,85.97
2022-11-05T01:48:09.634Z,85.99
2022-11-05T01:49:17.168Z,85.99
2022-11-05T01:50:29.940Z,86.02
2022-11-05T01:51:32.060Z,86.06
2022-11-05T01:52:35.941Z,86.07
2022-11-05T01:53:42.202Z,86.26
2022-11-05T01:54:47.358Z,86.17
2022-11-05T01:55:54.483Z,86.22
2022-11-05T01:57:00.902Z,86.31
2022-11-05T01:58:04.047Z,86.21
2022-11-05T01:59:11.141Z,86.15
2022-11-05T02:00:13.670Z,86.28
2022-11-05T02:01:18.119Z,86.08
2022-11-05T02:02:20.198Z,86.24
2022-11-05T02:03:23.593Z,86.26
2022-11-05T02:04:30.501Z,86.21
2022-11-05T02:05:34.754Z,86.20
2022-11-05T02:06:39.717Z,86.28
2022-11-05T02:07:44.716Z,86.31
2022-11-05T02:08:56.100Z,86.15
2022-11-05T02:10:03.913Z,86.25
2022-11-05T02:11:05.603Z,86.29
2022-11-05T02:12:09.318Z,86.04
2022-11-05T02:13:11.014Z,86.13
2022-11-05T02:14:13.737Z,86.08
2022-11-05T02:15:17.450Z,86.09
2022-11-05T02:16:35.931Z,86.05
2022-11-05T02:17:46.592Z,85.99
2022-11-05T02:19:00.031Z,85.87
2022-11-05T02:20:14.018Z,85.94
2022-11-05T02:21:35.259Z,86.00
2022-11-05T02:23:19.700Z,85.89
2022-11-05T02:24:46.919Z,85.87
2022-11-05T02:26:13.503Z,85.65
2022-11-05T02:27:21.730Z,85.72
2022-11-05T02:28:53.200Z,85.82
2022-11-05T02:30:33.190Z,85.72
2022-11-05T02:31:40.790Z,85.67
2022-11-05T02:33:11.037Z,85.85
2022-11-05T02:34:25.272Z,85.73
2022-11-05T02:35:48.840Z,85.67
2022-11-05T02:36:57.987Z,85.60
2022-11-05T02:38:08.527Z,85.61
2022-11-05T02:39:28.556Z,85.55
2022-11-05T02:40:40.898Z,85.55
2022-11-05T02:41:52.403Z,85.65
2022-11-05T02:43:03.030Z,85.59
2022-11-05T02:44:18.255Z,85.56
2022-11-05T02:45:33.005Z,85.45
2022-11-05T02:46:46.519Z,85.40
2022-11-05T02:47:51.923Z,85.32
2022-11-05T02:49:00.746Z,85.20
2022-11-05T02:50:10.834Z,85.00
2022-11-05T02:51:20.343Z,85.27
2022-11-05T02:52:29.122Z,85.19
2022-11-05T02:53:41.633Z,85.10
2022-11-05T02:54:47.335Z,85.16
2022-11-05T02:55:55.491Z,85.07
2022-11-05T02:56:59.125Z,84.96
2022-11-05T02:58:04.142Z,85.15
2022-11-05T02:59:05.823Z,84.97
2022-11-05T03:00:41.503Z,84.96
2022-11-05T03:01:46.556Z,84.88
2022-11-05T03:02:48.239Z,84.89
2022-11-05T03:03:53.955Z,84.79
2022-11-05T03:04:55.701Z,84.75
2022-11-05T03:06:11.537Z,84.82
2022-11-05T03:07:29.601Z,84.67
2022-11-05T03:08:41.382Z,84.45
2022-11-05T03:10:10.318Z,84.67
2022-11-05T03:11:15.611Z,84.55
2022-11-05T03:12:29.881Z,84.47
2022-11-05T03:13:39.680Z,84.59
2022-11-05T03:14:51.326Z,84.52
2022-11-05T03:16:00.046Z,84.50
2022-11-05T03:17:10.257Z,84.28
2022-11-05T03:18:15.871Z,84.51
2022-11-05T03:19:28.931Z,84.30
2022-11-05T03:20:35.388Z,84.26
2022-11-05T03:21:47.095Z,84.08
2022-11-05T03:22:53.758Z,84.24
2022-11-05T03:24:00.021Z,84.17
2022-11-05T03:25:05.715Z,83.98
2022-11-05T03:26:17.453Z,84.14
2022-11-05T03:27:23.759Z,84.18
2022-11-05T03:28:30.613Z,84.05
2022-11-05T03:29:37.307Z,84.30
2022-11-05T03:30:41.893Z,84.08
2022-11-05T03:31:48.371Z,83.94
2022-11-05T03:32:55.656Z,84.10
2022-11-05T03:33:59.855Z,83.88
2022-11-05T03:35:04.780Z,83.97
2022-11-05T03:36:11.605Z,84.08
2022-11-05T03:37:15.457Z,84.12
2022-11-05T03:38:21.702Z,84.06
2022-11-05T03:39:30.652Z,84.22
2022-11-05T03:40:35.961Z,83.93
2022-11-05T03:41:43.134Z,84.17
2022-11-05T03:42:49.828Z,84.23
2022-11-05T03:43:57.255Z,84.31
2022-11-05T03:45:02.733Z,84.01
2022-11-05T03:46:10.505Z,84.07
2022-11-05T03:47:17.210Z,83.84
2022-11-05T03:48:23.238Z,83.91
2022-11-05T03:49:27.712Z,84.03
2022-11-05T03:50:41.300Z,83.90
2022-11-05T03:51:49.367Z,83.95
2022-11-05T03:52:55.289Z,84.04
2022-11-05T03:53:59.635Z,84.03
2022-11-05T03:55:02.174Z,84.00
2022-11-05T03:56:10.400Z,83.99
2022-11-05T03:57:20.015Z,83.93
2022-11-05T03:58:23.338Z,83.87
2022-11-05T03:59:26.980Z,84.10
2022-11-05T04:00:28.487Z,84.10
2022-11-05T04:01:31.389Z,84.06
2022-11-05T04:02:34.545Z,84.20
2022-11-05T04:03:37.106Z,84.15
2022-11-05T04:04:39.119Z,83.98
2022-11-05T04:05:41.831Z,83.87
2022-11-05T04:07:01.800Z,84.19
2022-11-05T04:08:22.263Z,84.09
2022-11-05T04:09:42.568Z,83.82
2022-11-05T04:11:02.955Z,83.80
2022-11-05T04:12:24.000Z,84.04
2022-11-05T04:13:26.706Z,83.83
2022-11-05T04:14:28.298Z,83.81
2022-11-05T04:15:31.003Z,83.98
2022-11-05T04:16:50.853Z,83.93
2022-11-05T04:17:55.417Z,83.96
2022-11-05T04:18:56.939Z,84.09
2022-11-05T04:20:16.887Z,83.99
2022-11-05T04:21:37.117Z,84.13
2022-11-05T04:22:57.447Z,83.95
2022-11-05T04:24:09.303Z,84.24
2022-11-05T04:25:12.827Z,83.96
2022-11-05T04:26:14.393Z,84.05
2022-11-05T04:27:17.104Z,84.26
2022-11-05T04:28:18.613Z,84.33
2022-11-05T04:29:38.666Z,84.22
2022-11-05T04:30:44.121Z,84.16
2022-11-05T04:31:45.643Z,84.39
2022-11-05T04:33:06.786Z,84.42
2022-11-05T04:34:08.322Z,84.21
2022-11-05T04:35:10.797Z,84.54
2022-11-05T04:36:13.218Z,84.33
2022-11-05T04:37:15.706Z,84.32
2022-11-05T04:38:19.722Z,84.22
2022-11-05T04:39:21.559Z,84.64
2022-11-05T04:40:24.491Z,84.56
2022-11-05T04:41:26.434Z,84.50
2022-11-05T04:42:29.276Z,84.55
2022-11-05T04:43:30.820Z,84.53
2022-11-05T04:44:33.382Z,84.65
2022-11-05T04:45:35.865Z,84.56
2022-11-05T04:46:38.409Z,84.58
2022-11-05T04:47:39.939Z,84.67
2022-11-05T04:48:43.842Z,84.86
2022-11-05T04:49:45.379Z,84.71
2022-11-05T04:50:48.136Z,84.80
2022-11-05T04:51:49.651Z,84.91
2022-11-05T04:52:52.160Z,84.69
2022-11-05T04:53:54.121Z,84.78
2022-11-05T04:54:56.691Z,84.82
2022-11-05T04:56:09.037Z,84.84
2022-11-05T04:57:12.135Z,84.84
2022-11-05T04:58:13.680Z,84.95
2022-11-05T04:59:16.157Z,85.02
2022-11-05T05:00:18.556Z,84.93
2022-11-05T05:01:23.536Z,85.00
2022-11-05T05:02:25.245Z,85.05
2022-11-05T05:03:27.719Z,84.96
2022-11-05T05:04:30.576Z,85.00
2022-11-05T05:05:33.145Z,84.96
2022-11-05T05:06:34.767Z,85.18
2022-11-05T05:07:37.416Z,85.26
2022-11-05T05:08:38.967Z,85.10
2022-11-05T05:09:41.507Z,85.25
2022-11-05T05:10:43.035Z,85.28
2022-11-05T05:11:45.609Z,85.28
2022-11-05T05:12:48.367Z,85.40
2022-11-05T05:13:51.242Z,85.19
2022-11-05T05:14:52.951Z,85.23
2022-11-05T05:15:55.487Z,85.47
2022-11-05T05:16:56.982Z,85.41
2022-11-05T05:17:59.650Z,85.32
2022-11-05T05:19:01.181Z,85.50
2022-11-05T05:20:23.265Z,85.68
2022-11-05T05:21:40.954Z,85.38
2022-11-05T05:22:42.618Z,85.32
2022-11-05T05:23:47.169Z,85.48
2022-11-05T05:24:52.524Z,85.59
2022-11-05T05:25:55.515Z,85.25
2022-11-05T05:26:57.016Z,85.60
2022-11-05T05:28:00.729Z,85.73
2022-11-05T05:29:02.338Z,85.63
2022-11-05T05:30:05.535Z,85.73
2022-11-05T05:31:07.065Z,85.65
2022-11-05T05:32:09.681Z,85.71
2022-11-05T05:33:11.470Z,85.83
2022-11-05T05:34:15.560Z,85.63
2022-11-05T05:35:18.533Z,85.70
2022-11-05T05:36:21.602Z,85.76
2022-11-05T05:37:24.091Z,85.74
2022-11-05T05:38:25.762Z,85.57
2022-11-05T05:39:28.247Z,85.71
2022-11-05T05:40:29.724Z,85.85
2022-11-05T05:41:32.474Z,85.94
2022-11-05T05:42:38.755Z,85.76
2022-11-05T05:43:44.446Z,85.70
2022-11-05T05:44:45.983Z,85.95
2022-11-05T05:45:51.428Z,85.82
2022-11-05T05:46:53.861Z,86.09
2022-11-05T05:47:56.856Z,85.96
2022-11-05T05:48:58.435Z,85.87
2022-11-05T05:50:00.908Z,86.14
2022-11-05T05:51:05.777Z,85.97
2022-11-05T05:52:08.297Z,86.22
2022-11-05T05:53:10.172Z,85.99
2022-11-05T05:54:13.015Z,85.93
2022-11-05T05:55:15.242Z,86.33
2022-11-05T05:56:20.423Z,86.07
2022-11-05T05:57:22.157Z,86.20
2022-11-05T05:58:26.741Z,86.15
2022-11-05T05:59:28.328Z,86.21
2022-11-05T06:00:31.031Z,86.17
2022-11-05T06:01:33.297Z,86.22
2022-11-05T06:02:35.973Z,86.04
2022-11-05T06:03:37.634Z,86.14
2022-11-05T06:04:40.206Z,86.15
2022-11-05T06:05:45.743Z,86.17
2022-11-05T06:06:49.740Z,86.12
2022-11-05T06:07:55.497Z,86.06
2022-11-05T06:08:58.001Z,86.29
2022-11-05T06:09:59.538Z,86.20
2022-11-05T06:11:03.185Z,86.17
2022-11-05T06:12:05.426Z,86.39
2022-11-05T06:13:08.250Z,86.35
2022-11-05T06:14:11.175Z,86.42
2022-11-05T06:15:13.632Z,86.48
2022-11-05T06:16:15.207Z,86.55
2022-11-05T06:17:17.700Z,86.40
2022-11-05T06:18:19.889Z,86.38
2022-11-05T06:19:22.441Z,86.42
2022-11-05T06:20:23.981Z,86.47
2022-11-05T06:21:26.445Z,86.69
2022-11-05T06:22:29.316Z,86.29
2022-11-05T06:23:32.591Z,86.41
2022-11-05T06:24:34.182Z,86.55
2022-11-05T06:25:40.997Z,86.50
2022-11-05T06:26:44.951Z,86.46
2022-11-05T06:27:46.534Z,86.58
2022-11-05T06:28:49.010Z,86.62
2022-11-05T06:29:50.815Z,86.71
2022-11-05T06:30:53.334Z,86.57
2022-11-05T06:31:54.836Z,86.31
2022-11-05T06:32:57.314Z,86.73
2022-11-05T06:33:58.979Z,86.61
2022-11-05T06:35:01.475Z,86.72
2022-11-05T06:36:04.015Z,86.66
2022-11-05T06:37:06.487Z,86.67
2022-11-05T06:38:09.354Z,86.59
2022-11-05T06:39:12.265Z,86.96
2022-11-05T06:40:13.776Z,86.68
2022-11-05T06:41:20.648Z,86.60
2022-11-05T06:42:22.211Z,86.66
2022-11-05T06:43:24.710Z,86.39
2022-11-05T06:44:26.243Z,86.91
2022-11-05T06:45:28.728Z,86.65
2022-11-05T06:46:30.408Z,86.66
2022-11-05T06:47:32.877Z,86.54
2022-11-05T06:48:35.531Z,86.82
2022-11-05T06:49:37.332Z,86.93
2022-11-05T06:50:39.808Z,86.76
2022-11-05T06:51:41.299Z,86.88
2022-11-05T06:52:43.755Z,86.72
2022-11-05T06:53:47.570Z,86.83
2022-11-05T06:54:49.412Z,86.88
2022-11-05T06:55:52.130Z,87.00
2022-11-05T06:56:54.780Z,86.79
2022-11-05T06:57:58.831Z,86.95
2022-11-05T06:59:01.392Z,87.22
2022-11-05T07:00:07.801Z,86.85
2022-11-05T07:01:11.672Z,87.40
2022-11-05T07:02:13.484Z,87.06
2022-11-05T07:03:16.110Z,86.97
2022-11-05T07:04:17.636Z,86.61
2022-11-05T07:05:20.187Z,86.84
2022-11-05T07:06:22.658Z,86.81
2022-11-05T07:07:24.313Z,87.16
2022-11-05T07:08:26.962Z,86.89
2022-11-05T07:09:30.064Z,87.05
2022-11-05T07:10:32.939Z,87.02
2022-11-05T07:11:40.382Z,86.95
2022-11-05T07:12:43.142Z,87.10
2022-11-05T07:13:44.642Z,87.33
2022-11-05T07:14:47.194Z,87.09
2022-11-05T07:15:48.792Z,87.06
2022-11-05T07:16:51.291Z,87.10
2022-11-05T07:17:57.209Z,87.19
2022-11-05T07:18:59.765Z,87.02
2022-11-05T07:20:01.328Z,87.03
2022-11-05T07:21:04.230Z,87.10
2022-11-05T07:22:05.699Z,87.32
2022-11-05T07:23:12.128Z,87.25
2022-11-05T07:24:15.174Z,87.20
2022-11-05T07:25:19.002Z,87.27
2022-11-05T07:26:20.571Z,87.28
2022-11-05T07:27:23.134Z,87.11
2022-11-05T07:28:24.667Z,87.25
2022-11-05T07:29:27.130Z,87.24
2022-11-05T07:30:29.587Z,87.28
2022-11-05T07:31:32.064Z,87.14
2022-11-05T07:32:37.323Z,87.25
2022-11-05T07:33:39.804Z,87.01
2022-11-05T07:34:41.392Z,87.26
2022-11-05T07:35:44.182Z,87.35
2022-11-05T07:36:46.709Z,87.37
2022-11-05T07:37:50.512Z,87.24
2022-11-05T07:38:57.391Z,87.17
2022-11-05T07:40:01.587Z,87.08
2022-11-05T07:41:05.669Z,87.40
2022-11-05T07:42:07.209Z,87.12
2022-11-05T07:43:10.213Z,87.50
2022-11-05T07:44:14.213Z,87.41
2022-11-05T07:45:17.773Z,87.22
2022-11-05T07:46:20.269Z,87.16
2022-11-05T07:47:21.798Z,87.30
2022-11-05T07:48:24.304Z,87.23
2022-11-05T07:49:25.973Z,87.29
2022-11-05T07:50:30.335Z,87.61
2022-11-05T07:51:31.877Z,87.26
2022-11-05T07:52:34.522Z,87.24
2022-11-05T07:53:38.710Z,87.46
2022-11-05T07:54:43.534Z,87.10
2022-11-05T07:55:46.708Z,87.30
2022-11-05T07:56:50.499Z,87.36
2022-11-05T07:57:52.062Z,87.29
2022-11-05T07:58:54.578Z,87.29
2022-11-05T07:59:56.126Z,87.46
2022-11-05T08:00:58.802Z,87.33
2022-11-05T08:02:00.677Z,87.22
2022-11-05T08:03:08.142Z,87.27
2022-11-05T08:04:10.374Z,87.52
2022-11-05T08:05:12.900Z,87.27
2022-11-05T08:06:15.362Z,87.42
2022-11-05T08:07:16.873Z,87.45
2022-11-05T08:08:21.407Z,87.24
2022-11-05T08:09:22.951Z,87.38
2022-11-05T08:10:25.986Z,87.35
2022-11-05T08:11:28.536Z,87.26
2022-11-05T08:12:31.573Z,87.55
2022-11-05T08:13:34.183Z,87.63
2022-11-05T08:14:35.697Z,87.50
2022-11-05T08:15:38.363Z,87.40
2022-11-05T08:16:39.844Z,87.50
2022-11-05T08:17:42.711Z,87.34
2022-11-05T08:18:45.692Z,87.38
2022-11-05T08:19:47.208Z,87.30
2022-11-05T08:20:49.744Z,87.22
2022-11-05T08:21:51.267Z,87.15
2022-11-05T08:22:54.263Z,87.19
2022-11-05T08:23:55.916Z,87.35
2022-11-05T08:25:01.474Z,87.36
2022-11-05T08:26:07.134Z,87.16
2022-11-05T08:27:09.659Z,87.27
2022-11-05T08:28:13.084Z,87.29
2022-11-05T08:29:15.651Z,87.40
2022-11-05T08:30:17.332Z,87.31
2022-11-05T08:31:19.857Z,87.43
2022-11-05T08:32:21.341Z,87.26
2022-11-05T08:33:25.448Z,87.27
2022-11-05T08:34:26.946Z,87.45
2022-11-05T08:35:30.573Z,87.41
2022-11-05T08:36:32.081Z,87.29
2022-11-05T08:37:34.622Z,87.23
2022-11-05T08:38:36.190Z,87.24
2022-11-05T08:39:38.671Z,87.25
2022-11-05T08:40:41.208Z,87.19
2022-11-05T08:41:43.687Z,87.12
2022-11-05T08:42:45.267Z,87.11
2022-11-05T08:43:49.062Z,87.29
2022-11-05T08:44:50.606Z,87.05
2022-11-05T08:45:54.883Z,87.31
2022-11-05T08:46:56.448Z,87.32
2022-11-05T08:48:02.403Z,87.08
2022-11-05T08:49:05.168Z,87.21
2022-11-05T08:50:08.431Z,87.13
2022-11-05T08:51:10.966Z,86.92
2022-11-05T08:52:12.534Z,86.90
2022-11-05T08:53:16.305Z,87.15
2022-11-05T08:54:18.848Z,86.99
2022-11-05T08:55:20.779Z,86.90
2022-11-05T08:56:24.000Z,86.92
2022-11-05T08:57:25.515Z,86.93
2022-11-05T08:58:28.048Z,86.85
2022-11-05T08:59:31.381Z,86.76
2022-11-05T09:00:35.981Z,86.76
2022-11-05T09:01:38.621Z,86.84
2022-11-05T09:02:40.508Z,86.69
2022-11-05T09:03:43.072Z,86.74
2022-11-05T09:04:44.727Z,86.52
2022-11-05T09:05:47.442Z,86.63
2022-11-05T09:06:49.979Z,86.73
2022-11-05T09:07:53.184Z,86.50
2022-11-05T09:08:59.105Z,86.69
2022-11-05T09:10:10.042Z,86.58
2022-11-05T09:11:12.842Z,86.31
2022-11-05T09:12:14.430Z,86.46
2022-11-05T09:13:19.868Z,86.38
2022-11-05T09:14:22.898Z,86.37
2022-11-05T09:15:26.020Z,86.43
2022-11-05T09:16:28.527Z,86.11
2022-11-05T09:17:30.108Z,86.28
2022-11-05T09:18:32.673Z,86.03
2022-11-05T09:19:39.367Z,85.91
2022-11-05T09:20:42.825Z,86.09
2022-11-05T09:21:45.658Z,86.01
2022-11-05T09:22:47.398Z,86.02
2022-11-05T09:23:49.973Z,85.94
2022-11-05T09:24:51.473Z,85.91
2022-11-05T09:25:53.998Z,85.92
2022-11-05T09:26:55.649Z,85.81
2022-11-05T09:28:07.771Z,85.64
2022-11-05T09:29:14.063Z,85.67
2022-11-05T09:30:17.344Z,85.86
2022-11-05T09:31:20.371Z,85.67
2022-11-05T09:32:23.155Z,85.55
2022-11-05T09:33:26.827Z,85.77
2022-11-05T09:34:29.334Z,85.68
2022-11-05T09:35:30.911Z,85.54
2022-11-05T09:36:33.417Z,85.54
2022-11-05T09:37:36.068Z,85.44
2022-11-05T09:38:38.564Z,85.47
2022-11-05T09:39:40.137Z,85.57
2022-11-05T09:40:48.937Z,85.29
2022-11-05T09:41:53.910Z,85.36
2022-11-05T09:42:55.476Z,85.17
2022-11-05T09:44:03.151Z,85.23
2022-11-05T09:45:09.929Z,85.13
2022-11-05T09:46:19.247Z,85.19
2022-11-05T09:47:25.989Z,84.96
2022-11-05T09:48:31.706Z,84.95
2022-11-05T09:49:39.813Z,84.83
2022-11-05T09:50:46.325Z,84.76
2022-11-05T09:51:47.872Z,84.64
2022-11-05T09:52:50.397Z,84.94
2022-11-05T09:53:53.538Z,84.57
2022-11-05T09:54:56.676Z,84.65
2022-11-05T09:56:01.746Z,84.67
2022-11-05T09:57:05.520Z,84.54
2022-11-05T09:58:16.296Z,84.39
2022-11-05T09:59:22.426Z,84.52
2022-11-05T10:00:27.318Z,84.37
2022-11-05T10:01:32.941Z,84.33
2022-11-05T10:02:43.445Z,84.19
2022-11-05T10:03:48.847Z,83.95
2022-11-05T10:04:56.758Z,83.99
2022-11-05T10:06:07.375Z,83.74
2022-11-05T10:07:15.319Z,83.53
2022-11-05T10:08:23.249Z,83.67
2022-11-05T10:09:29.749Z,83.51
2022-11-05T10:10:41.089Z,83.25
2022-11-05T10:11:48.730Z,83.31
2022-11-05T10:12:55.119Z,83.10
2022-11-05T10:14:02.816Z,82.95
2022-11-05T10:15:13.446Z,82.81
2022-11-05T10:16:23.373Z,83.00
2022-11-05T10:17:27.710Z,82.77
2022-11-05T10:18:35.417Z,82.78
2022-11-05T10:19:44.329Z,82.70
2022-11-05T10:20:46.372Z,82.43
2022-11-05T10:22:06.181Z,82.28
2022-11-05T10:23:13.750Z,82.17
2022-11-05T10:24:18.886Z,82.06
2022-11-05T10:25:22.564Z,81.97
2022-11-05T10:26:27.779Z,81.88
2022-11-05T10:27:32.848Z,81.63
2022-11-05T10:28:36.076Z,81.64
2022-11-05T10:29:37.878Z,81.34
2022-11-05T10:30:40.577Z,81.32
2022-11-05T10:31:44.205Z,81.19
2022-11-05T10:32:47.123Z,81.00
2022-11-05T10:33:53.034Z,80.73
2022-11-05T10:34:57.467Z,80.66
2022-11-05T10:36:05.463Z,80.63
2022-11-05T10:37:07.126Z,80.50
2022-11-05T10:38:14.549Z,80.52
2022-11-05T10:39:18.887Z,80.49
2022-11-05T10:40:32.997Z,80.43
2022-11-05T10:41:52.516Z,80.45
2022-11-05T10:43:02.344Z,80.27
2022-11-05T10:44:23.576Z,80.23
2022-11-05T10:45:35.324Z,80.07
2022-11-05T10:46:47.109Z,80.13
2022-11-05T10:48:02.965Z,80.18
2022-11-05T10:49:18.759Z,79.65
2022-11-05T10:50:24.102Z,79.84
2022-11-05T10:51:27.347Z,80.14
2022-11-05T10:52:33.005Z,79.71
2022-11-05T10:53:38.370Z,79.68
2022-11-05T10:54:40.271Z,79.52
2022-11-05T10:55:45.539Z,79.17
2022-11-05T10:56:48.449Z,79.23
2022-11-05T10:57:51.779Z,79.39
2022-11-05T10:58:55.904Z,79.09
2022-11-05T11:00:25.110Z,79.05
2022-11-05T11:01:28.460Z,78.89
2022-11-05T11:02:30.721Z,79.10
2022-11-05T11:03:38.602Z,78.92
2022-11-05T11:04:42.760Z,78.97
2022-11-05T11:05:44.357Z,79.06
2022-11-05T11:06:51.772Z,78.69
2022-11-05T11:07:56.315Z,78.67
2022-11-05T11:09:07.439Z,78.83
2022-11-05T11:10:20.270Z,78.62
2022-11-05T11:11:29.197Z,78.79
2022-11-05T11:12:40.843Z,78.44
2022-11-05T11:13:52.400Z,78.85
2022-11-05T11:15:01.309Z,78.58
2022-11-05T11:16:16.089Z,78.53
2022-11-05T11:17:27.663Z,78.44
2022-11-05T11:18:35.966Z,78.61
2022-11-05T11:19:43.908Z,78.53
2022-11-05T11:20:45.730Z,78.54
2022-11-05T11:22:11.981Z,78.51
2022-11-05T11:23:16.084Z,78.32
2022-11-05T11:24:23.065Z,78.39
2022-11-05T11:25:26.451Z,78.19
2022-11-05T11:26:32.143Z,78.06
2022-11-05T11:27:34.898Z,78.15
2022-11-05T11:28:40.787Z,77.94
2022-11-05T11:29:49.118Z,77.48
2022-11-05T11:31:05.719Z,77.54
2022-11-05T11:32:13.218Z,77.23
2022-11-05T11:33:22.050Z,77.21
2022-11-05T11:34:29.819Z,77.24
2022-11-05T11:35:36.772Z,77.02
2022-11-05T11:36:44.593Z,76.77
2022-11-05T11:37:46.731Z,76.61
2022-11-05T11:38:49.288Z,76.36
2022-11-05T11:39:54.681Z,76.18
2022-11-05T11:41:03.617Z,76.12
2022-11-05T11:42:13.833Z,76.11
2022-11-05T11:43:26.830Z,75.84
2022-11-05T11:44:34.370Z,75.95
2022-11-05T11:45:45.198Z,76.12
2022-11-05T11:46:49.244Z,75.79
2022-11-05T11:47:51.953Z,75.74
2022-11-05T11:48:53.632Z,75.38
2022-11-05T11:49:58.007Z,74.98
2022-11-05T11:51:19.827Z,74.89
2022-11-05T11:52:28.950Z,74.87
2022-11-05T11:53:36.856Z,74.61
2022-11-05T11:54:38.722Z,74.54
2022-11-05T11:55:41.237Z,74.62
2022-11-05T11:56:45.391Z,74.41
2022-11-05T11:57:49.617Z,74.58
2022-11-05T11:58:54.099Z,74.25
2022-11-05T12:00:14.623Z,74.18
2022-11-05T12:02:00.998Z,74.16
2022-11-05T12:03:13.611Z,74.17
2022-11-05T12:04:28.788Z,74.23
2022-11-05T12:05:40.796Z,74.02
2022-11-05T12:06:51.304Z,73.91
2022-11-05T12:07:54.844Z,73.82
2022-11-05T12:09:07.130Z,74.01
2022-11-05T12:10:25.360Z,73.51
2022-11-05T12:11:34.147Z,73.62
2022-11-05T12:12:43.969Z,73.57
2022-11-05T12:14:00.168Z,73.41
2022-11-05T12:15:10.647Z,73.32
2022-11-05T12:16:21.852Z,72.98
2022-11-05T12:17:35.615Z,73.12
2022-11-05T12:18:44.603Z,72.75
2022-11-05T12:20:03.427Z,73.08
2022-11-05T12:21:07.507Z,72.78
2022-11-05T12:22:24.504Z,72.76
2022-11-05T12:23:44.628Z,72.68
2022-11-05T12:25:22.133Z,72.73
2022-11-05T12:26:35.584Z,72.70
2022-11-05T12:27:53.288Z,72.40
2022-11-05T12:29:18.869Z,72.46
2022-11-05T12:30:22.997Z,72.39
2022-11-05T12:31:34.926Z,72.23
2022-11-05T12:32:48.825Z,72.06
2022-11-05T12:34:04.014Z,71.86
2022-11-05T12:35:19.814Z,71.99
2022-11-05T12:36:33.637Z,71.98
2022-11-05T12:37:47.108Z,72.40
2022-11-05T12:39:09.268Z,71.86
2022-11-05T12:40:32.657Z,71.81
2022-11-05T12:41:42.218Z,71.88
2022-11-05T12:43:00.489Z,71.77
2022-11-05T12:44:20.581Z,71.54
2022-11-05T12:45:45.830Z,71.51
2022-11-05T12:46:58.638Z,71.49
2022-11-05T12:48:16.027Z,71.51
2022-11-05T12:49:46.144Z,71.51
2022-11-05T12:50:54.690Z,71.29
2022-11-05T12:52:11.532Z,71.18
2022-11-05T12:53:40.721Z,71.23
2022-11-05T12:54:55.945Z,71.17
2022-11-05T12:56:01.393Z,71.16
2022-11-05T12:57:05.082Z,71.12
2022-11-05T12:58:11.714Z,70.88
2022-11-05T12:59:22.372Z,70.95
2022-11-05T13:01:20.726Z,70.81
2022-11-05T13:02:29.853Z,70.83
2022-11-05T13:03:42.082Z,70.68
2022-11-05T13:04:48.881Z,70.64
2022-11-05T13:05:54.939Z,70.52
2022-11-05T13:07:00.607Z,70.66
2022-11-05T13:08:10.168Z,70.68
2022-11-05T13:09:21.977Z,70.59
2022-11-05T13:10:34.266Z,70.36
2022-11-05T13:11:41.555Z,70.56
2022-11-05T13:12:46.674Z,70.43
2022-11-05T13:14:04.938Z,70.23
2022-11-05T13:15:16.292Z,70.35
2022-11-05T13:16:26.762Z,70.05
2022-11-05T13:17:35.431Z,70.15
2022-11-05T13:18:47.783Z,70.02
2022-11-05T13:19:55.466Z,69.68
2022-11-05T13:20:58.634Z,69.65
2022-11-05T13:22:07.852Z,69.38
2022-11-05T13:23:18.466Z,69.23
2022-11-05T13:24:26.183Z,68.87
2022-11-05T13:25:29.925Z,68.85
2022-11-05T13:26:39.507Z,68.76
2022-11-05T13:27:48.696Z,68.74
2022-11-05T13:28:58.164Z,68.51
2022-11-05T13:30:03.191Z,68.41
2022-11-05T13:31:14.474Z,68.43
2022-11-05T13:32:35.355Z,68.23
2022-11-05T13:33:42.111Z,68.53
2022-11-05T13:34:44.820Z,68.30
2022-11-05T13:36:15.014Z,68.28
2022-11-05T13:37:41.780Z,68.37
2022-11-05T13:39:02.483Z,68.50
2022-11-05T13:40:10.752Z,67.93
2022-11-05T13:41:26.198Z,68.45
2022-11-05T13:42:48.230Z,68.47
2022-11-05T13:44:09.236Z,68.51
2022-11-05T13:45:49.132Z,68.58
2022-11-05T13:47:13.922Z,68.29
2022-11-05T13:48:44.244Z,68.62
2022-11-05T13:50:17.982Z,68.64
2022-11-05T13:51:47.320Z,68.59
2022-11-05T13:53:09.980Z,68.44
2022-11-05T13:54:54.264Z,68.23
2022-11-05T13:56:04.794Z,67.72
2022-11-05T13:57:28.644Z,67.85
2022-11-05T13:59:04.323Z,67.80
2022-11-05T14:00:13.578Z,67.61
2022-11-05T14:01:31.043Z,67.41
2022-11-05T14:02:38.679Z,67.43
2022-11-05T14:03:47.430Z,67.34
2022-11-05T14:04:54.478Z,67.27
2022-11-05T14:06:04.181Z,67.32
2022-11-05T14:07:09.631Z,67.22
2022-11-05T14:08:17.181Z,67.23
2022-11-05T14:09:24.572Z,67.23
2022-11-05T14:10:35.025Z,67.03
2022-11-05T14:11:43.334Z,66.85
2022-11-05T14:12:50.693Z,66.81
2022-11-05T14:13:57.654Z,66.33
2022-11-05T14:15:04.741Z,66.80
2022-11-05T14:16:09.482Z,66.30
2022-11-05T14:17:16.289Z,66.16
2022-11-05T14:18:37.049Z,65.86
2022-11-05T14:19:51.806Z,66.16
2022-11-05T14:21:00.034Z,65.81
2022-11-05T14:22:30.059Z,66.01
2022-11-05T14:23:41.022Z,66.17
2022-11-05T14:24:45.637Z,65.83
2022-11-05T14:25:57.482Z,65.77